createdAt,value
2017-07-27T00:00:39.710Z,24.03
2017-07-27T00:03:07.787Z,22.97
2017-07-27T00:05:35.859Z,22.73
2017-07-27T00:08:03.966Z,24.73
2017-07-27T00:10:32.035Z,22.97
2017-07-27T00:13:00.107Z,25.70
2017-07-27T00:15:28.947Z,26.10
2017-07-27T00:17:57.027Z,23.67
2017-07-27T00:20:25.303Z,27.10
2017-07-27T00:22:53.386Z,24.10
2017-07-27T00:25:21.463Z,24.70
2017-07-27T00:27:49.534Z,30.43
2017-07-27T00:30:17.620Z,23.47
2017-07-27T00:32:45.678Z,24.77
2017-07-27T00:35:13.818Z,23.77
2017-07-27T00:37:42.103Z,28.50
2017-07-27T00:40:10.179Z,25.63
2017-07-27T00:42:38.265Z,25.27
2017-07-27T00:45:06.326Z,23.60
2017-07-27T00:47:34.411Z,26.87
2017-07-27T00:50:02.484Z,26.60
2017-07-27T00:52:30.567Z,26.13
2017-07-27T00:54:58.638Z,25.07
2017-07-27T00:57:26.714Z,31.40
2017-07-27T00:59:54.814Z,29.57
2017-07-27T01:02:22.908Z,26.93
2017-07-27T01:04:50.970Z,58.33
2017-07-27T01:07:19.039Z,28.63
2017-07-27T01:09:47.118Z,27.57
2017-07-27T01:12:15.243Z,28.90
2017-07-27T01:14:43.327Z,33.23
2017-07-27T01:17:11.394Z,51.87
2017-07-27T01:19:39.503Z,32.67
2017-07-27T01:22:07.570Z,39.70
2017-07-27T01:24:35.630Z,27.00
2017-07-27T01:27:04.515Z,32.10
2017-07-27T01:29:33.350Z,33.20
2017-07-27T01:32:01.427Z,29.13
2017-07-27T01:34:29.494Z,41.30
2017-07-27T01:36:57.571Z,26.20
2017-07-27T01:39:25.647Z,27.13
2017-07-27T01:41:53.727Z,31.37
2017-07-27T01:44:21.814Z,33.47
2017-07-27T01:46:49.882Z,29.10
2017-07-27T01:49:17.947Z,37.53
2017-07-27T01:51:46.018Z,29.57
2017-07-27T01:54:14.098Z,25.10
2017-07-27T01:56:42.191Z,28.80
2017-07-27T01:59:10.286Z,25.33
2017-07-27T02:01:39.123Z,24.10
2017-07-27T02:04:07.211Z,23.60
2017-07-27T02:06:35.279Z,25.90
2017-07-27T02:09:03.368Z,41.60
2017-07-27T02:11:31.439Z,23.67
2017-07-27T02:13:59.539Z,24.47
2017-07-27T02:16:27.607Z,27.90
2017-07-27T02:18:56.460Z,45.17
2017-07-27T02:21:24.525Z,28.37
2017-07-27T02:23:52.607Z,35.23
2017-07-27T02:26:20.676Z,26.60
2017-07-27T02:28:48.746Z,26.77
2017-07-27T02:31:16.823Z,28.43
2017-07-27T02:33:44.887Z,24.10
2017-07-27T02:36:12.967Z,23.63
2017-07-27T02:38:41.034Z,27.30
2017-07-27T02:41:09.115Z,33.50
2017-07-27T02:43:37.187Z,22.67
2017-07-27T02:46:05.283Z,23.37
2017-07-27T02:48:33.353Z,20.97
2017-07-27T02:51:01.435Z,24.20
2017-07-27T02:53:30.270Z,23.10
2017-07-27T02:55:58.343Z,23.60
2017-07-27T02:58:26.418Z,22.63
2017-07-27T03:00:54.487Z,26.90
2017-07-27T03:03:22.558Z,23.87
2017-07-27T03:05:50.628Z,24.23
2017-07-27T03:08:18.703Z,23.10
2017-07-27T03:10:46.774Z,22.37
2017-07-27T03:13:14.846Z,22.80
2017-07-27T03:15:43.078Z,22.67
2017-07-27T03:18:11.943Z,23.70
2017-07-27T03:20:40.088Z,24.53
2017-07-27T03:23:08.163Z,24.53
2017-07-27T03:25:36.235Z,31.57
2017-07-27T03:28:04.307Z,23.03
2017-07-27T03:30:32.411Z,28.90
2017-07-27T03:33:00.475Z,23.20
2017-07-27T03:35:28.576Z,21.73
2017-07-27T03:37:56.657Z,24.83
2017-07-27T03:40:25.502Z,25.20
2017-07-27T03:42:53.571Z,24.23
2017-07-27T03:45:21.651Z,24.50
2017-07-27T03:47:49.726Z,23.20
2017-07-27T03:50:17.818Z,25.87
2017-07-27T03:52:45.887Z,23.63
2017-07-27T03:55:13.959Z,29.77
2017-07-27T03:57:42.062Z,27.80
2017-07-27T04:00:10.151Z,22.77
2017-07-27T04:02:38.230Z,26.40
2017-07-27T04:05:06.303Z,24.37
2017-07-27T04:07:34.383Z,33.50
2017-07-27T04:10:02.454Z,29.97
2017-07-27T04:12:30.527Z,25.37
2017-07-27T04:14:58.606Z,29.07
2017-07-27T04:17:26.678Z,24.73
2017-07-27T04:19:54.750Z,27.80
2017-07-27T04:22:22.839Z,24.23
2017-07-27T04:24:50.910Z,24.80
2017-07-27T04:27:18.987Z,24.87
2017-07-27T04:29:47.059Z,25.27
2017-07-27T04:32:15.127Z,24.00
2017-07-27T04:34:43.206Z,21.77
2017-07-27T04:37:11.291Z,23.70
2017-07-27T04:39:39.375Z,19.80
2017-07-27T04:42:07.447Z,24.70
2017-07-27T04:44:35.530Z,21.23
2017-07-27T04:47:03.591Z,23.50
2017-07-27T04:49:31.663Z,25.10
2017-07-27T04:51:59.735Z,21.13
2017-07-27T04:54:27.828Z,20.70
2017-07-27T04:57:14.389Z,20.10
2017-07-27T04:59:42.475Z,21.00
2017-07-27T05:02:10.551Z,19.70
2017-07-27T05:04:38.621Z,21.50
2017-07-27T05:07:06.703Z,23.07
2017-07-27T05:09:34.767Z,18.93
2017-07-27T05:12:02.843Z,18.90
2017-07-27T05:14:30.922Z,20.10
2017-07-27T05:16:58.994Z,19.80
2017-07-27T05:19:27.059Z,16.93
2017-07-27T05:21:55.139Z,21.00
2017-07-27T05:24:23.202Z,20.13
2017-07-27T05:26:51.295Z,22.20
2017-07-27T05:29:19.366Z,20.80
2017-07-27T05:31:48.222Z,18.57
2017-07-27T05:34:16.310Z,19.37
2017-07-27T05:36:44.390Z,21.53
2017-07-27T05:39:12.454Z,19.73
2017-07-27T05:41:40.526Z,18.97
2017-07-27T05:44:08.607Z,18.40
2017-07-27T05:46:36.676Z,18.77
2017-07-27T05:49:04.751Z,20.07
2017-07-27T05:51:32.815Z,20.50
2017-07-27T05:54:00.905Z,18.57
2017-07-27T05:56:30.275Z,18.00
2017-07-27T05:58:58.370Z,19.53
2017-07-27T06:01:26.434Z,17.30
2017-07-27T06:03:54.506Z,17.47
2017-07-27T06:06:22.584Z,17.20
2017-07-27T06:08:50.653Z,17.53
2017-07-27T06:11:18.739Z,16.90
2017-07-27T06:13:47.579Z,20.07
2017-07-27T06:16:15.655Z,21.27
2017-07-27T06:18:43.723Z,20.53
2017-07-27T06:21:11.807Z,18.27
2017-07-27T06:23:39.876Z,17.30
2017-07-27T06:26:07.959Z,23.00
2017-07-27T06:28:36.032Z,19.13
2017-07-27T06:31:04.123Z,17.40
2017-07-27T06:33:32.202Z,17.00
2017-07-27T06:36:00.271Z,18.67
2017-07-27T06:38:28.350Z,17.27
2017-07-27T06:40:57.195Z,18.80
2017-07-27T06:43:25.275Z,21.00
2017-07-27T06:45:53.351Z,18.33
2017-07-27T06:48:21.430Z,18.83
2017-07-27T06:50:49.494Z,21.23
2017-07-27T06:53:17.575Z,19.17
2017-07-27T06:55:45.647Z,18.77
2017-07-27T06:58:13.727Z,17.57
2017-07-27T07:00:41.791Z,18.17
2017-07-27T07:03:09.870Z,18.63
2017-07-27T07:05:37.939Z,17.30
2017-07-27T07:08:06.008Z,19.40
2017-07-27T07:10:34.082Z,19.67
2017-07-27T07:13:02.164Z,17.47
2017-07-27T07:15:30.238Z,19.83
2017-07-27T07:17:58.316Z,17.70
2017-07-27T07:20:26.400Z,17.80
2017-07-27T07:22:54.464Z,18.13
2017-07-27T07:25:22.538Z,17.43
2017-07-27T07:27:50.602Z,20.90
2017-07-27T07:30:18.679Z,18.10
2017-07-27T07:32:46.746Z,19.10
2017-07-27T07:35:15.058Z,16.50
2017-07-27T07:37:43.132Z,16.43
2017-07-27T07:40:11.202Z,16.13
2017-07-27T07:42:40.042Z,19.33
2017-07-27T07:45:08.119Z,21.67
2017-07-27T07:47:36.190Z,19.47
2017-07-27T07:50:04.255Z,19.93
2017-07-27T07:52:32.335Z,17.50
2017-07-27T07:55:00.402Z,17.10
2017-07-27T07:57:28.484Z,18.17
2017-07-27T07:59:56.553Z,20.97
2017-07-27T08:02:24.615Z,20.20
2017-07-27T08:04:52.697Z,19.37
2017-07-27T08:07:20.771Z,18.13
2017-07-27T08:10:06.582Z,18.33
2017-07-27T08:12:34.644Z,19.13
2017-07-27T08:15:02.731Z,19.17
2017-07-27T08:17:30.802Z,17.50
2017-07-27T08:19:59.658Z,19.20
2017-07-27T08:22:27.872Z,18.33
2017-07-27T08:24:56.707Z,20.37
2017-07-27T08:27:24.782Z,17.40
2017-07-27T08:29:52.851Z,16.53
2017-07-27T08:32:21.887Z,21.00
2017-07-27T08:34:49.954Z,17.23
2017-07-27T08:37:18.035Z,18.13
2017-07-27T08:39:46.127Z,19.47
2017-07-27T08:42:14.955Z,16.97
2017-07-27T08:44:43.031Z,18.53
2017-07-27T08:47:11.106Z,16.90
2017-07-27T08:49:39.176Z,16.93
2017-07-27T08:52:07.242Z,17.13
2017-07-27T08:54:35.342Z,20.10
2017-07-27T08:57:03.416Z,14.80
2017-07-27T08:59:31.483Z,13.40
2017-07-27T09:01:59.970Z,15.80
2017-07-27T09:04:28.042Z,13.47
2017-07-27T09:06:56.131Z,12.70
2017-07-27T09:09:24.192Z,10.87
2017-07-27T09:11:52.255Z,15.73
2017-07-27T09:14:20.326Z,28.37
2017-07-27T09:16:48.412Z,12.40
2017-07-27T09:19:16.492Z,13.07
2017-07-27T09:21:44.560Z,11.50
2017-07-27T09:24:12.635Z,11.43
2017-07-27T09:26:40.706Z,11.87
2017-07-27T09:29:08.778Z,11.17
2017-07-27T09:31:36.855Z,10.63
2017-07-27T09:34:04.926Z,11.23
2017-07-27T09:36:33.010Z,10.80
2017-07-27T09:39:02.092Z,11.73
2017-07-27T09:41:30.163Z,10.20
2017-07-27T09:43:58.228Z,11.27
2017-07-27T09:46:26.299Z,9.70
2017-07-27T09:48:54.364Z,9.80
2017-07-27T09:51:22.434Z,9.57
2017-07-27T09:53:50.523Z,10.13
2017-07-27T09:56:18.599Z,9.10
2017-07-27T09:58:46.678Z,11.20
2017-07-27T10:01:14.743Z,9.47
2017-07-27T10:03:42.811Z,8.93
2017-07-27T10:06:10.875Z,9.77
2017-07-27T10:08:39.054Z,8.93
2017-07-27T10:11:07.117Z,10.53
2017-07-27T10:13:35.191Z,8.63
2017-07-27T10:16:03.258Z,8.47
2017-07-27T10:18:31.326Z,8.13
2017-07-27T10:20:59.432Z,11.27
2017-07-27T10:23:27.490Z,9.40
2017-07-27T10:25:55.563Z,9.37
2017-07-27T10:28:23.642Z,10.67
2017-07-27T10:30:51.706Z,6.60
2017-07-27T10:33:19.794Z,6.37
2017-07-27T10:35:47.855Z,6.53
2017-07-27T10:38:15.911Z,6.37
2017-07-27T10:40:43.982Z,5.10
2017-07-27T10:43:12.055Z,5.80
2017-07-27T10:45:40.127Z,7.30
2017-07-27T10:48:08.192Z,5.13
2017-07-27T10:50:36.251Z,6.10
2017-07-27T10:53:04.322Z,6.23
2017-07-27T10:55:32.394Z,6.67
2017-07-27T10:58:00.475Z,5.27
2017-07-27T11:00:28.542Z,6.60
2017-07-27T11:02:56.612Z,4.73
2017-07-27T11:05:24.683Z,5.23
2017-07-27T11:07:52.759Z,6.60
2017-07-27T11:10:20.829Z,4.50
2017-07-27T11:12:48.902Z,4.27
2017-07-27T11:15:16.962Z,5.03
2017-07-27T11:17:45.047Z,5.30
2017-07-27T11:20:13.965Z,5.07
2017-07-27T11:22:42.034Z,4.27
2017-07-27T11:25:10.106Z,5.37
2017-07-27T11:27:38.176Z,4.97
2017-07-27T11:30:06.255Z,5.07
2017-07-27T11:32:34.323Z,4.60
2017-07-27T11:35:02.555Z,5.37
2017-07-27T11:37:30.615Z,4.67
2017-07-27T11:39:59.455Z,5.07
2017-07-27T11:42:28.450Z,5.97
2017-07-27T11:44:56.527Z,4.43
2017-07-27T11:47:24.591Z,3.97
2017-07-27T11:49:52.687Z,4.27
2017-07-27T11:52:20.746Z,4.53
2017-07-27T11:54:48.815Z,4.30
2017-07-27T11:57:16.887Z,3.90
2017-07-27T11:59:44.955Z,3.67
2017-07-27T12:02:13.035Z,4.20
2017-07-27T12:04:41.102Z,3.70
2017-07-27T12:07:09.179Z,3.33
2017-07-27T12:09:37.246Z,4.43
2017-07-27T12:12:05.323Z,3.47
2017-07-27T12:14:33.394Z,4.00
2017-07-27T12:17:01.466Z,3.80
2017-07-27T12:19:29.531Z,3.70
2017-07-27T12:21:57.619Z,2.40
2017-07-27T12:24:25.693Z,4.30
2017-07-27T12:26:53.776Z,5.03
2017-07-27T12:29:21.848Z,4.13
2017-07-27T12:31:49.903Z,2.60
2017-07-27T12:34:17.979Z,2.40
2017-07-27T12:36:46.047Z,3.83
2017-07-27T12:39:14.122Z,3.43
2017-07-27T12:41:42.190Z,3.20
2017-07-27T12:44:10.263Z,3.60
2017-07-27T12:46:38.323Z,2.47
2017-07-27T12:49:06.404Z,2.40
2017-07-27T12:51:34.470Z,3.63
2017-07-27T12:54:02.553Z,3.17
2017-07-27T12:56:30.623Z,3.20
2017-07-27T12:58:58.695Z,3.50
2017-07-27T13:01:26.771Z,4.07
2017-07-27T13:03:54.843Z,3.70
2017-07-27T13:06:22.910Z,3.30
2017-07-27T13:08:50.986Z,3.60
2017-07-27T13:11:19.054Z,3.73
2017-07-27T13:13:47.134Z,4.03
2017-07-27T13:16:15.207Z,3.07
2017-07-27T13:18:43.274Z,3.30
2017-07-27T13:21:11.342Z,3.53
2017-07-27T13:23:39.539Z,2.97
2017-07-27T13:26:07.622Z,3.27
2017-07-27T13:28:35.679Z,2.73
2017-07-27T13:31:03.745Z,3.03
2017-07-27T13:33:31.828Z,3.00
2017-07-27T13:35:59.886Z,3.60
2017-07-27T13:38:27.959Z,2.90
2017-07-27T13:40:56.030Z,2.60
2017-07-27T13:43:24.103Z,5.97
2017-07-27T13:45:52.174Z,4.20
2017-07-27T13:48:20.249Z,3.43
2017-07-27T13:50:48.330Z,3.80
2017-07-27T13:53:16.915Z,2.30
2017-07-27T13:55:45.165Z,2.33
2017-07-27T13:58:13.226Z,2.60
2017-07-27T14:00:41.301Z,3.00
2017-07-27T14:03:09.384Z,3.07
2017-07-27T14:05:37.463Z,3.30
2017-07-27T14:08:05.530Z,3.07
2017-07-27T14:10:33.599Z,3.07
2017-07-27T14:13:01.660Z,3.67
2017-07-27T14:15:29.734Z,2.63
2017-07-27T14:17:57.807Z,3.67
2017-07-27T14:20:25.879Z,3.60
2017-07-27T14:22:53.950Z,3.23
2017-07-27T14:25:22.046Z,3.50
2017-07-27T14:27:50.115Z,4.00
2017-07-27T14:30:18.191Z,3.60
2017-07-27T14:32:46.262Z,3.37
2017-07-27T14:35:14.334Z,4.17
2017-07-27T14:37:42.401Z,3.60
2017-07-27T14:40:10.464Z,3.43
2017-07-27T14:42:38.564Z,4.10
2017-07-27T14:45:06.643Z,3.60
2017-07-27T14:47:34.719Z,3.53
2017-07-27T14:50:02.787Z,4.00
2017-07-27T14:52:30.871Z,4.73
2017-07-27T14:54:58.936Z,4.27
2017-07-27T14:57:27.006Z,4.03
2017-07-27T14:59:55.075Z,4.77
2017-07-27T15:02:23.148Z,4.20
2017-07-27T15:04:51.215Z,4.17
2017-07-27T15:07:19.283Z,3.90
2017-07-27T15:09:47.362Z,5.13
2017-07-27T15:12:15.424Z,5.23
2017-07-27T15:14:43.490Z,4.87
2017-07-27T15:17:11.567Z,4.90
2017-07-27T15:19:39.641Z,5.60
2017-07-27T15:22:07.712Z,5.30
2017-07-27T15:24:35.787Z,5.80
2017-07-27T15:27:03.855Z,5.53
2017-07-27T15:29:31.927Z,5.00
2017-07-27T15:32:00.004Z,5.87
2017-07-27T15:34:28.076Z,5.90
2017-07-27T15:36:56.202Z,5.97
2017-07-27T15:39:24.263Z,7.70
2017-07-27T15:41:53.107Z,5.70
2017-07-27T15:44:21.175Z,5.70
2017-07-27T15:46:49.250Z,6.30
2017-07-27T15:49:17.328Z,5.63
2017-07-27T15:51:45.411Z,5.70
2017-07-27T15:54:13.480Z,6.17
2017-07-27T15:56:41.542Z,6.90
2017-07-27T15:59:09.619Z,7.00
2017-07-27T16:01:37.691Z,7.00
2017-07-27T16:04:05.760Z,6.97
2017-07-27T16:06:33.832Z,5.63
2017-07-27T16:09:01.907Z,6.00
2017-07-27T16:11:29.978Z,6.60
2017-07-27T16:13:58.046Z,7.20
2017-07-27T16:16:26.123Z,5.83
2017-07-27T16:18:54.195Z,6.20
2017-07-27T16:21:22.256Z,9.40
2017-07-27T16:23:50.331Z,6.60
2017-07-27T16:26:18.410Z,5.83
2017-07-27T16:28:46.479Z,6.37
2017-07-27T16:31:14.560Z,5.80
2017-07-27T16:33:42.626Z,6.50
2017-07-27T16:36:10.706Z,16.13
2017-07-27T16:38:38.770Z,6.70
2017-07-27T16:41:06.843Z,5.97
2017-07-27T16:43:34.915Z,7.00
2017-07-27T16:46:02.988Z,7.47
2017-07-27T16:48:31.055Z,7.30
2017-07-27T16:50:59.139Z,14.17
2017-07-27T16:53:27.213Z,7.67
2017-07-27T16:55:55.281Z,7.80
2017-07-27T16:58:23.352Z,6.07
2017-07-27T17:00:51.419Z,5.87
2017-07-27T17:03:19.491Z,6.10
2017-07-27T17:05:47.572Z,5.50
2017-07-27T17:08:15.648Z,5.90
2017-07-27T17:10:43.733Z,7.17
2017-07-27T17:13:12.584Z,7.07
2017-07-27T17:15:40.859Z,11.20
2017-07-27T17:18:08.930Z,6.93
2017-07-27T17:20:37.142Z,6.10
2017-07-27T17:23:05.211Z,5.83
2017-07-27T17:25:33.286Z,9.80
2017-07-27T17:28:01.359Z,6.40
2017-07-27T17:30:29.424Z,6.37
2017-07-27T17:32:57.535Z,6.70
2017-07-27T17:35:26.378Z,7.03
2017-07-27T17:37:54.443Z,9.23
2017-07-27T17:40:22.524Z,8.10
2017-07-27T17:42:50.599Z,8.37
2017-07-27T17:45:18.699Z,10.00
2017-07-27T17:47:46.770Z,8.57
2017-07-27T17:50:14.827Z,8.50
2017-07-27T17:52:42.903Z,9.10
2017-07-27T17:55:10.983Z,11.70
2017-07-27T17:57:39.059Z,9.27
2017-07-27T18:00:07.135Z,7.70
2017-07-27T18:02:35.203Z,9.37
2017-07-27T18:05:03.360Z,6.23
2017-07-27T18:07:31.426Z,7.30
2017-07-27T18:09:59.511Z,7.23
2017-07-27T18:12:27.582Z,6.77
2017-07-27T18:14:55.656Z,6.20
2017-07-27T18:17:23.726Z,6.60
2017-07-27T18:19:51.802Z,6.50
2017-07-27T18:22:19.871Z,6.30
2017-07-27T18:24:47.942Z,5.33
2017-07-27T18:27:16.007Z,5.73
2017-07-27T18:29:44.082Z,5.67
2017-07-27T18:32:12.157Z,15.73
2017-07-27T18:34:40.235Z,14.80
2017-07-27T18:37:08.307Z,11.73
2017-07-27T18:39:36.385Z,8.03
2017-07-27T18:42:04.638Z,6.97
2017-07-27T18:44:32.711Z,6.47
2017-07-27T18:47:00.795Z,5.30
2017-07-27T18:49:28.854Z,5.67
2017-07-27T18:51:56.932Z,5.87
2017-07-27T18:54:24.995Z,6.17
2017-07-27T18:56:53.076Z,33.63
2017-07-27T18:59:21.146Z,68.77
2017-07-27T19:01:49.222Z,20.10
2017-07-27T19:04:17.290Z,10.10
2017-07-27T19:06:45.359Z,8.67
2017-07-27T19:09:13.429Z,8.30
2017-07-27T19:11:41.543Z,6.47
2017-07-27T19:14:09.596Z,6.67
2017-07-27T19:16:37.671Z,5.80
2017-07-27T19:19:05.756Z,12.47
2017-07-27T19:21:33.814Z,32.07
2017-07-27T19:24:01.891Z,14.70
2017-07-27T19:26:29.959Z,9.70
2017-07-27T19:28:58.028Z,7.90
2017-07-27T19:31:26.111Z,9.07
2017-07-27T19:33:54.186Z,8.53
2017-07-27T19:36:22.251Z,6.30
2017-07-27T19:38:50.323Z,7.30
2017-07-27T19:41:18.391Z,6.00
2017-07-27T19:43:46.463Z,8.60
2017-07-27T19:46:14.535Z,17.20
2017-07-27T19:48:42.610Z,17.83
2017-07-27T19:51:10.683Z,10.70
2017-07-27T19:53:38.750Z,14.27
2017-07-27T19:56:06.824Z,8.43
2017-07-27T19:58:34.900Z,7.63
2017-07-27T20:01:02.975Z,7.90
2017-07-27T20:03:31.046Z,5.77
2017-07-27T20:05:59.128Z,6.60
2017-07-27T20:08:27.175Z,6.17
2017-07-27T20:10:55.244Z,6.17
2017-07-27T20:13:23.315Z,5.80
2017-07-27T20:15:51.387Z,6.17
2017-07-27T20:18:19.458Z,5.67
2017-07-27T20:20:47.536Z,6.50
2017-07-27T20:23:15.602Z,6.80
2017-07-27T20:25:43.666Z,7.93
2017-07-27T20:28:11.743Z,6.77
2017-07-27T20:30:39.807Z,6.20
2017-07-27T20:33:07.884Z,8.03
2017-07-27T20:35:35.943Z,5.97
2017-07-27T20:38:04.016Z,6.17
2017-07-27T20:40:32.082Z,6.30
2017-07-27T20:43:00.147Z,5.70
2017-07-27T20:45:28.211Z,6.33
2017-07-27T20:47:56.279Z,6.97
2017-07-27T20:50:25.125Z,5.57
2017-07-27T20:52:53.210Z,6.20
2017-07-27T20:55:21.271Z,7.10
2017-07-27T20:57:49.335Z,6.30
2017-07-27T21:00:17.407Z,5.57
2017-07-27T21:02:45.471Z,5.77
2017-07-27T21:05:13.542Z,8.60
2017-07-27T21:07:41.607Z,5.60
2017-07-27T21:10:09.675Z,6.93
2017-07-27T21:12:37.746Z,4.67
2017-07-27T21:15:05.820Z,4.53
2017-07-27T21:17:33.883Z,6.53
2017-07-27T21:20:01.952Z,4.83
2017-07-27T21:22:30.014Z,4.90
2017-07-27T21:24:58.091Z,5.10
2017-07-27T21:27:26.155Z,4.33
2017-07-27T21:29:54.218Z,5.07
2017-07-27T21:32:23.054Z,4.27
2017-07-27T21:34:51.126Z,5.30
2017-07-27T21:37:19.199Z,4.57
2017-07-27T21:39:47.267Z,4.53
2017-07-27T21:42:15.374Z,4.90
2017-07-27T21:44:43.440Z,5.73
2017-07-27T21:47:11.511Z,4.33
2017-07-27T21:49:39.570Z,4.80
2017-07-27T21:52:07.639Z,4.10
2017-07-27T21:54:35.714Z,4.40
2017-07-27T21:57:03.886Z,4.63
2017-07-27T21:59:31.942Z,4.50
2017-07-27T22:02:00.048Z,5.00
2017-07-27T22:04:28.106Z,4.73
2017-07-27T22:06:56.170Z,4.27
2017-07-27T22:09:24.238Z,4.20
2017-07-27T22:11:52.320Z,4.87
2017-07-27T22:14:20.382Z,4.10
2017-07-27T22:16:48.447Z,5.00
2017-07-27T22:19:16.516Z,3.80
2017-07-27T22:21:44.573Z,4.70
2017-07-27T22:24:12.643Z,4.53
2017-07-27T22:26:40.707Z,5.50
2017-07-27T22:29:08.774Z,4.60
2017-07-27T22:31:37.671Z,5.13
2017-07-27T22:34:05.754Z,4.23
2017-07-27T22:36:33.826Z,4.67
2017-07-27T22:39:01.903Z,5.20
2017-07-27T22:41:29.985Z,4.40
2017-07-27T22:43:58.034Z,5.03
2017-07-27T22:46:26.103Z,4.77
2017-07-27T22:48:54.163Z,4.50
2017-07-27T22:51:22.243Z,4.00
2017-07-27T22:53:51.088Z,6.13
2017-07-27T22:56:19.162Z,5.00
2017-07-27T22:58:47.226Z,4.00
2017-07-27T23:01:15.306Z,6.43
2017-07-27T23:03:43.366Z,5.50
2017-07-27T23:09:09.299Z,4.50
2017-07-27T23:11:37.379Z,6.10
2017-07-27T23:14:05.442Z,3.90
2017-07-27T23:16:33.498Z,4.60
2017-07-27T23:19:01.562Z,6.17
2017-07-27T23:21:29.614Z,5.50
2017-07-27T23:23:58.455Z,4.80
2017-07-27T23:26:26.519Z,4.97
2017-07-27T23:28:54.592Z,4.73
2017-07-27T23:31:22.653Z,4.73
2017-07-27T23:33:50.724Z,5.30
2017-07-27T23:36:18.778Z,4.30
2017-07-27T23:38:46.850Z,4.87
2017-07-27T23:41:15.673Z,4.63
2017-07-27T23:43:43.743Z,6.17
2017-07-27T23:46:11.817Z,5.40
2017-07-27T23:48:39.882Z,6.70
2017-07-27T23:51:07.963Z,4.93
2017-07-27T23:53:36.031Z,5.90
2017-07-27T23:56:04.107Z,5.70
2017-07-27T23:58:32.162Z,6.13
